createdAt,value
2023-04-24T00:01:38.122Z,20.33
2023-04-24T00:04:05.556Z,20.87
2023-04-24T00:06:35.476Z,20.57
2023-04-24T00:09:02.645Z,20.10
2023-04-24T00:11:29.964Z,22.03
2023-04-24T00:13:57.685Z,22.93
2023-04-24T00:16:24.966Z,23.53
2023-04-24T00:18:53.958Z,23.47
2023-04-24T00:21:21.929Z,24.47
2023-04-24T00:23:49.104Z,23.93
2023-04-24T00:26:16.270Z,25.07
2023-04-24T00:28:43.125Z,23.33
2023-04-24T00:31:10.063Z,25.80
2023-04-24T00:33:37.479Z,22.87
2023-04-24T00:36:04.611Z,24.13
2023-04-24T00:38:32.978Z,22.80
2023-04-24T00:41:02.309Z,21.40
2023-04-24T00:43:29.462Z,20.30
2023-04-24T00:45:56.663Z,21.90
2023-04-24T00:48:25.352Z,22.87
2023-04-24T00:50:52.144Z,20.83
2023-04-24T00:53:19.066Z,20.83
2023-04-24T00:55:46.518Z,20.10
2023-04-24T00:58:13.895Z,19.57
2023-04-24T01:00:40.966Z,19.60
2023-04-24T01:03:08.986Z,21.37
2023-04-24T01:05:36.119Z,21.53
2023-04-24T01:08:05.608Z,19.50
2023-04-24T01:10:35.588Z,20.23
2023-04-24T01:13:02.803Z,21.73
2023-04-24T01:15:30.270Z,21.43
2023-04-24T01:17:57.489Z,20.57
2023-04-24T01:20:27.227Z,19.63
2023-04-24T01:22:56.202Z,19.47
2023-04-24T01:25:27.279Z,21.00
2023-04-24T01:27:57.211Z,19.90
2023-04-24T01:30:24.423Z,19.73
2023-04-24T01:32:51.715Z,19.27
2023-04-24T01:35:18.852Z,18.67
2023-04-24T01:37:46.095Z,17.43
2023-04-24T01:40:13.633Z,16.80
2023-04-24T01:42:42.661Z,16.43
2023-04-24T01:45:12.313Z,16.23
2023-04-24T01:47:39.392Z,14.50
2023-04-24T01:50:07.403Z,14.50
2023-04-24T01:52:34.577Z,13.27
2023-04-24T01:55:02.745Z,14.40
2023-04-24T01:57:31.659Z,12.20
2023-04-24T01:59:58.981Z,13.13
2023-04-24T02:02:28.835Z,11.73
2023-04-24T02:04:55.854Z,11.03
2023-04-24T02:07:22.877Z,10.57
2023-04-24T02:09:50.054Z,10.20
2023-04-24T02:12:19.661Z,10.33
2023-04-24T02:14:46.573Z,9.53
2023-04-24T02:17:14.588Z,8.50
2023-04-24T02:19:41.862Z,9.30
2023-04-24T02:22:08.924Z,8.70
2023-04-24T02:24:35.859Z,8.60
2023-04-24T02:27:04.028Z,8.37
2023-04-24T02:29:31.748Z,7.73
2023-04-24T02:31:58.752Z,8.17
2023-04-24T02:34:25.844Z,8.00
2023-04-24T02:36:54.967Z,7.90
2023-04-24T02:39:22.368Z,8.30
2023-04-24T02:41:49.441Z,7.50
2023-04-24T02:44:16.280Z,7.93
2023-04-24T02:46:43.282Z,7.73
2023-04-24T02:49:13.190Z,7.50
2023-04-24T02:51:42.426Z,7.63
2023-04-24T02:54:11.230Z,7.37
2023-04-24T02:56:38.329Z,6.00
2023-04-24T02:59:05.326Z,5.53
2023-04-24T03:01:32.670Z,5.23
2023-04-24T03:03:59.873Z,5.77
2023-04-24T03:06:30.974Z,5.07
2023-04-24T03:08:58.519Z,5.00
2023-04-24T03:11:25.601Z,4.50
2023-04-24T03:13:52.654Z,4.73
2023-04-24T03:16:19.619Z,5.10
2023-04-24T03:18:46.865Z,4.83
2023-04-24T03:21:14.996Z,5.63
2023-04-24T03:23:41.895Z,5.40
2023-04-24T03:26:08.780Z,5.60
2023-04-24T03:28:35.749Z,5.17
2023-04-24T03:31:04.319Z,5.77
2023-04-24T03:33:31.442Z,5.10
2023-04-24T03:35:58.428Z,5.43
2023-04-24T03:38:25.368Z,5.10
2023-04-24T03:40:52.400Z,5.27
2023-04-24T03:43:19.325Z,5.57
2023-04-24T03:45:46.304Z,4.63
2023-04-24T03:48:13.280Z,5.10
2023-04-24T03:50:40.602Z,5.40
2023-04-24T03:53:07.533Z,5.07
2023-04-24T03:55:34.347Z,5.23
2023-04-24T03:58:01.139Z,5.63
2023-04-24T04:00:28.582Z,4.80
2023-04-24T04:02:55.586Z,5.23
2023-04-24T04:05:22.710Z,5.43
2023-04-24T04:07:49.626Z,5.30
2023-04-24T04:10:18.406Z,5.13
2023-04-24T04:12:45.369Z,4.90
2023-04-24T04:15:12.376Z,5.33
2023-04-24T04:17:39.548Z,5.33
2023-04-24T04:20:11.300Z,5.23
2023-04-24T04:22:38.970Z,5.53
2023-04-24T04:25:07.927Z,5.33
2023-04-24T04:27:35.843Z,5.33
2023-04-24T04:30:05.921Z,5.57
2023-04-24T04:32:34.570Z,6.47
2023-04-24T04:35:04.954Z,6.00
2023-04-24T04:37:32.606Z,5.67
2023-04-24T04:39:59.543Z,5.40
2023-04-24T04:42:28.179Z,5.30
2023-04-24T04:44:55.408Z,5.10
2023-04-24T04:47:26.071Z,4.30
2023-04-24T04:49:53.304Z,4.10
2023-04-24T04:52:20.808Z,3.93
2023-04-24T04:54:47.945Z,3.97
2023-04-24T04:57:14.899Z,3.33
2023-04-24T04:59:42.555Z,3.70
2023-04-24T05:02:10.253Z,3.67
2023-04-24T05:04:37.586Z,3.03
2023-04-24T05:07:05.829Z,5.10
2023-04-24T05:09:33.531Z,3.40
2023-04-24T05:12:02.612Z,3.50
2023-04-24T05:14:29.903Z,3.13
2023-04-24T05:16:57.268Z,3.93
2023-04-24T05:19:26.286Z,3.10
2023-04-24T05:21:53.305Z,2.70
2023-04-24T05:24:20.630Z,2.77
2023-04-24T05:26:48.294Z,2.67
2023-04-24T05:29:15.239Z,2.60
2023-04-24T05:31:42.183Z,3.03
2023-04-24T05:34:09.177Z,2.40
2023-04-24T05:36:36.084Z,2.37
2023-04-24T05:39:03.178Z,2.60
2023-04-24T05:41:30.133Z,2.37
2023-04-24T05:43:57.329Z,2.50
2023-04-24T05:46:24.574Z,2.00
2023-04-24T05:48:51.534Z,2.73
2023-04-24T05:51:18.645Z,2.33
2023-04-24T05:53:45.751Z,2.27
2023-04-24T05:56:13.289Z,2.27
2023-04-24T05:58:40.914Z,2.30
2023-04-24T06:01:07.892Z,2.27
2023-04-24T06:03:35.356Z,2.13
2023-04-24T06:06:02.470Z,3.03
2023-04-24T06:08:29.185Z,1.93
2023-04-24T06:10:56.205Z,1.90
2023-04-24T06:13:23.121Z,2.10
2023-04-24T06:15:49.990Z,2.20
2023-04-24T06:18:20.921Z,2.60
2023-04-24T06:20:48.250Z,2.53
2023-04-24T06:23:15.176Z,2.97
2023-04-24T06:25:42.313Z,2.30
2023-04-24T06:28:09.179Z,2.40
2023-04-24T06:30:36.176Z,2.27
2023-04-24T06:33:12.955Z,2.27
2023-04-24T06:35:46.169Z,2.20
2023-04-24T06:38:13.264Z,2.33
2023-04-24T06:40:40.789Z,2.97
2023-04-24T06:43:07.956Z,2.30
2023-04-24T06:45:35.079Z,2.80
2023-04-24T06:48:02.073Z,2.30
2023-04-24T06:50:29.015Z,2.63
2023-04-24T06:52:55.919Z,3.03
2023-04-24T06:55:22.853Z,2.90
2023-04-24T06:57:49.927Z,2.67
2023-04-24T07:00:19.362Z,2.70
2023-04-24T07:02:46.236Z,3.07
2023-04-24T07:05:14.023Z,3.30
2023-04-24T07:07:41.622Z,6.47
2023-04-24T07:10:09.915Z,3.10
2023-04-24T07:12:37.112Z,3.07
2023-04-24T07:15:04.572Z,3.20
2023-04-24T07:17:31.593Z,4.73
2023-04-24T07:19:59.111Z,4.50
2023-04-24T07:22:26.335Z,3.50
2023-04-24T07:24:53.159Z,4.63
2023-04-24T07:27:20.064Z,3.50
2023-04-24T07:29:47.135Z,3.30
2023-04-24T07:32:14.297Z,3.80
2023-04-24T07:34:41.690Z,3.43
2023-04-24T07:37:08.770Z,3.30
2023-04-24T07:39:35.958Z,4.20
2023-04-24T07:42:03.488Z,4.70
2023-04-24T07:44:30.543Z,4.00
2023-04-24T07:46:58.042Z,4.07
2023-04-24T07:49:29.099Z,4.33
2023-04-24T07:51:56.251Z,4.90
2023-04-24T07:54:23.118Z,4.43
2023-04-24T07:56:50.923Z,5.43
2023-04-24T07:59:17.718Z,4.47
2023-04-24T08:01:44.713Z,4.00
2023-04-24T08:04:11.955Z,4.33
2023-04-24T08:06:38.989Z,5.00
2023-04-24T08:09:06.275Z,4.93
2023-04-24T08:11:33.261Z,5.07
2023-04-24T08:14:00.443Z,5.30
2023-04-24T08:16:27.705Z,5.63
2023-04-24T08:18:54.702Z,5.80
2023-04-24T08:21:22.273Z,5.90
2023-04-24T08:23:49.132Z,5.10
2023-04-24T08:26:16.201Z,5.60
2023-04-24T08:28:43.866Z,5.83
2023-04-24T08:31:10.879Z,5.23
2023-04-24T08:33:37.862Z,5.50
2023-04-24T08:36:06.881Z,5.20
2023-04-24T08:38:35.094Z,6.00
2023-04-24T08:41:05.081Z,5.83
2023-04-24T08:43:34.444Z,6.27
2023-04-24T08:46:01.990Z,6.67
2023-04-24T08:48:31.564Z,7.83
2023-04-24T08:51:00.257Z,7.90
2023-04-24T08:53:27.767Z,8.63
2023-04-24T08:55:57.187Z,8.40
2023-04-24T08:58:27.786Z,9.07
2023-04-24T09:00:58.701Z,9.20
2023-04-24T09:03:28.452Z,8.73
2023-04-24T09:05:57.085Z,8.53
2023-04-24T09:08:26.275Z,13.20
2023-04-24T09:10:53.348Z,8.47
2023-04-24T09:13:22.007Z,7.33
2023-04-24T09:15:49.191Z,7.77
2023-04-24T09:18:16.203Z,6.53
2023-04-24T09:21:03.527Z,6.90
2023-04-24T09:23:32.063Z,6.63
2023-04-24T09:26:01.223Z,7.10
2023-04-24T09:28:33.579Z,8.73
2023-04-24T09:31:09.381Z,7.67
2023-04-24T09:33:36.864Z,7.43
2023-04-24T09:36:04.593Z,8.50
2023-04-24T09:38:39.514Z,10.07
2023-04-24T09:41:10.004Z,9.17
2023-04-24T09:43:37.048Z,8.63
2023-04-24T09:46:08.747Z,8.67
2023-04-24T09:48:38.163Z,8.00
2023-04-24T09:51:13.903Z,8.10
2023-04-24T09:53:41.498Z,8.03
2023-04-24T09:56:14.108Z,7.90
2023-04-24T09:58:41.264Z,7.83
2023-04-24T10:01:08.587Z,8.60
2023-04-24T10:03:36.079Z,8.70
2023-04-24T10:06:09.782Z,9.70
2023-04-24T10:08:38.789Z,8.60
2023-04-24T10:11:06.105Z,8.90
2023-04-24T10:13:36.940Z,8.77
2023-04-24T10:16:05.614Z,9.13
2023-04-24T10:18:33.852Z,8.50
2023-04-24T10:21:02.822Z,8.83
2023-04-24T10:23:31.498Z,11.10
2023-04-24T10:25:59.579Z,9.87
2023-04-24T10:28:27.970Z,9.30
2023-04-24T10:30:56.599Z,9.60
2023-04-24T10:33:24.863Z,9.13
2023-04-24T10:35:53.056Z,10.53
2023-04-24T10:38:31.529Z,10.20
2023-04-24T10:41:17.034Z,11.57
2023-04-24T10:43:44.738Z,12.40
2023-04-24T10:46:11.939Z,12.57
2023-04-24T10:48:44.987Z,13.30
2023-04-24T10:51:14.949Z,13.53
2023-04-24T10:53:41.936Z,13.67
2023-04-24T10:56:14.785Z,14.33
2023-04-24T10:58:53.561Z,13.80
2023-04-24T11:01:28.361Z,14.63
2023-04-24T11:04:00.101Z,15.73
2023-04-24T11:06:36.171Z,14.97
2023-04-24T11:09:08.625Z,15.10
2023-04-24T11:11:41.777Z,14.57
2023-04-24T11:14:09.681Z,14.37
2023-04-24T11:16:39.422Z,14.87
2023-04-24T11:19:06.549Z,14.63
2023-04-24T11:21:44.714Z,15.47
2023-04-24T11:24:37.138Z,14.67
2023-04-24T11:27:05.675Z,14.97
2023-04-24T11:29:48.264Z,13.80
2023-04-24T11:32:28.210Z,14.43
2023-04-24T11:35:01.696Z,18.97
2023-04-24T11:37:39.779Z,15.53
2023-04-24T11:40:17.536Z,34.57
2023-04-24T11:42:46.836Z,13.67
2023-04-24T11:45:16.740Z,13.47
2023-04-24T11:47:44.850Z,13.80
2023-04-24T11:50:18.430Z,13.87
2023-04-24T11:52:50.200Z,13.83
2023-04-24T11:55:20.082Z,14.03
2023-04-24T11:57:49.489Z,12.77
2023-04-24T12:00:18.520Z,13.83
2023-04-24T12:02:46.215Z,14.03
2023-04-24T12:05:24.885Z,14.10
2023-04-24T12:07:51.978Z,12.57
2023-04-24T12:10:27.242Z,12.50
2023-04-24T12:12:58.764Z,10.87
2023-04-24T12:15:26.566Z,10.43
2023-04-24T12:17:54.660Z,10.73
2023-04-24T12:20:32.677Z,10.37
2023-04-24T12:23:01.697Z,9.20
2023-04-24T12:25:31.312Z,9.87
2023-04-24T12:28:07.348Z,9.47
2023-04-24T12:30:51.541Z,9.90
2023-04-24T12:33:22.999Z,9.37
2023-04-24T12:35:55.114Z,10.30
2023-04-24T12:38:27.568Z,9.90
2023-04-24T12:41:10.594Z,8.70
2023-04-24T12:43:38.278Z,8.77
2023-04-24T12:46:06.216Z,8.40
2023-04-24T12:48:33.590Z,7.87
2023-04-24T12:51:04.019Z,7.77
2023-04-24T12:53:32.424Z,7.53
2023-04-24T12:55:59.675Z,7.27
2023-04-24T12:58:26.971Z,7.47
2023-04-24T13:00:54.426Z,7.80
2023-04-24T13:03:21.774Z,8.17
2023-04-24T13:05:48.825Z,8.40
2023-04-24T13:08:15.842Z,8.57
2023-04-24T13:10:42.972Z,9.77
2023-04-24T13:13:10.307Z,10.87
2023-04-24T13:15:37.564Z,11.10
2023-04-24T13:18:04.601Z,11.07
2023-04-24T13:20:32.580Z,11.43
2023-04-24T13:23:00.555Z,10.63
2023-04-24T13:25:28.159Z,11.37
2023-04-24T13:27:55.251Z,10.37
2023-04-24T13:30:22.474Z,10.50
2023-04-24T13:32:49.309Z,10.60
2023-04-24T13:35:16.382Z,9.10
2023-04-24T13:37:43.276Z,9.40
2023-04-24T13:40:11.116Z,9.70
2023-04-24T13:42:38.259Z,9.97
2023-04-24T13:45:21.285Z,10.17
2023-04-24T13:47:52.305Z,9.70
2023-04-24T13:50:19.587Z,9.93
2023-04-24T13:52:46.514Z,9.90
2023-04-24T13:55:13.648Z,9.60
2023-04-24T13:57:40.840Z,10.30
2023-04-24T14:00:11.948Z,10.53
2023-04-24T14:02:40.743Z,9.50
2023-04-24T14:05:07.944Z,9.50
2023-04-24T14:07:35.141Z,8.77
2023-04-24T14:10:02.044Z,9.67
2023-04-24T14:12:29.258Z,9.20
2023-04-24T14:14:56.167Z,9.43
2023-04-24T14:17:23.669Z,9.13
2023-04-24T14:19:51.647Z,10.47
2023-04-24T14:22:18.877Z,10.43
2023-04-24T14:24:45.893Z,9.60
2023-04-24T14:27:15.905Z,9.50
2023-04-24T14:29:42.822Z,8.40
2023-04-24T14:32:10.239Z,8.20
2023-04-24T14:34:37.269Z,9.17
2023-04-24T14:37:04.098Z,8.53
2023-04-24T14:39:31.197Z,7.27
2023-04-24T14:41:58.237Z,7.30
2023-04-24T14:44:25.337Z,8.20
2023-04-24T14:46:52.352Z,8.30
2023-04-24T14:49:19.353Z,8.23
2023-04-24T14:51:46.341Z,8.87
2023-04-24T14:54:13.713Z,8.40
2023-04-24T14:56:42.303Z,10.13
2023-04-24T14:59:09.551Z,9.07
2023-04-24T15:01:36.505Z,5.40
2023-04-24T15:04:03.655Z,5.00
2023-04-24T15:06:32.731Z,5.83
2023-04-24T15:08:59.869Z,6.90
2023-04-24T15:11:27.293Z,5.60
2023-04-24T15:13:54.349Z,5.97
2023-04-24T15:16:22.219Z,5.93
2023-04-24T15:18:53.514Z,5.93
2023-04-24T15:21:20.588Z,6.83
2023-04-24T15:23:48.999Z,9.17
2023-04-24T15:26:16.126Z,8.30
2023-04-24T15:28:44.123Z,9.23
2023-04-24T15:31:11.256Z,8.57
2023-04-24T15:33:38.073Z,10.80
2023-04-24T15:36:08.271Z,11.57
2023-04-24T15:38:35.359Z,12.00
2023-04-24T15:41:02.561Z,13.60
2023-04-24T15:43:32.216Z,15.23
2023-04-24T15:45:59.159Z,16.37
2023-04-24T15:48:26.123Z,18.03
2023-04-24T15:50:53.157Z,21.47
2023-04-24T15:53:22.692Z,18.23
2023-04-24T15:55:50.677Z,20.07
2023-04-24T15:58:18.455Z,18.77
2023-04-24T16:00:45.580Z,19.83
2023-04-24T16:03:13.376Z,21.47
2023-04-24T16:05:40.718Z,18.90
2023-04-24T16:08:07.665Z,17.13
2023-04-24T16:10:34.797Z,17.20
2023-04-24T16:13:04.692Z,13.23
2023-04-24T16:15:32.687Z,15.63
2023-04-24T16:18:02.245Z,12.87
2023-04-24T16:20:29.335Z,15.40
2023-04-24T16:22:56.419Z,18.40
2023-04-24T16:25:23.353Z,18.40
2023-04-24T16:27:52.819Z,13.13
2023-04-24T16:30:20.017Z,23.13
2023-04-24T16:32:47.327Z,57.03
2023-04-24T16:35:14.284Z,21.47
2023-04-24T16:37:41.496Z,18.20
2023-04-24T16:40:11.133Z,13.53
2023-04-24T16:42:38.602Z,13.93
2023-04-24T16:45:06.917Z,12.93
2023-04-24T16:47:33.835Z,16.40
2023-04-24T16:50:03.750Z,13.00
2023-04-24T16:52:30.586Z,12.53
2023-04-24T16:54:57.695Z,14.87
2023-04-24T16:57:24.761Z,12.83
2023-04-24T16:59:51.597Z,11.20
2023-04-24T17:02:18.766Z,14.53
2023-04-24T17:04:46.303Z,15.80
2023-04-24T17:07:16.555Z,11.50
2023-04-24T17:09:46.889Z,12.77
2023-04-24T17:12:13.850Z,11.57
2023-04-24T17:14:43.521Z,17.10
2023-04-24T17:17:10.621Z,13.00
2023-04-24T17:19:37.673Z,13.90
2023-04-24T17:22:06.085Z,11.93
2023-04-24T17:24:33.744Z,11.77
2023-04-24T17:27:04.865Z,10.67
2023-04-24T17:29:41.659Z,13.53
2023-04-24T17:32:08.877Z,13.00
2023-04-24T17:34:36.041Z,14.60
2023-04-24T17:37:04.384Z,15.37
2023-04-24T17:39:31.553Z,13.20
2023-04-24T17:41:58.705Z,18.07
2023-04-24T17:44:27.574Z,12.97
2023-04-24T17:46:55.133Z,15.40
2023-04-24T17:49:22.288Z,14.50
2023-04-24T17:51:52.168Z,13.10
2023-04-24T17:54:19.163Z,16.13
2023-04-24T17:56:46.651Z,12.17
2023-04-24T17:59:14.009Z,15.03
2023-04-24T18:01:41.003Z,11.20
2023-04-24T18:04:09.075Z,13.53
2023-04-24T18:06:36.404Z,10.80
2023-04-24T18:09:03.830Z,15.47
2023-04-24T18:11:30.681Z,13.30
2023-04-24T18:13:57.612Z,9.40
2023-04-24T18:16:25.976Z,9.43
2023-04-24T18:18:54.281Z,7.97
2023-04-24T18:21:21.172Z,10.53
2023-04-24T18:23:48.255Z,10.07
2023-04-24T18:26:17.324Z,10.90
2023-04-24T18:28:48.286Z,10.60
2023-04-24T18:31:15.633Z,13.13
2023-04-24T18:33:43.192Z,6.87
2023-04-24T18:36:10.157Z,8.30
2023-04-24T18:38:37.087Z,9.73
2023-04-24T18:41:04.300Z,7.00
2023-04-24T18:43:31.327Z,7.43
2023-04-24T18:45:58.244Z,9.20
2023-04-24T18:48:25.117Z,6.17
2023-04-24T18:50:53.035Z,5.70
2023-04-24T18:53:20.076Z,7.03
2023-04-24T18:55:46.947Z,7.47
2023-04-24T18:58:15.316Z,6.33
2023-04-24T19:00:42.326Z,5.97
2023-04-24T19:03:09.577Z,5.07
2023-04-24T19:05:36.756Z,9.13
2023-04-24T19:08:03.721Z,8.17
2023-04-24T19:10:31.342Z,5.77
2023-04-24T19:12:58.242Z,9.00
2023-04-24T19:15:25.842Z,4.73
2023-04-24T19:17:54.013Z,6.03
2023-04-24T19:20:24.300Z,3.63
2023-04-24T19:22:51.575Z,6.57
2023-04-24T19:25:18.574Z,5.80
2023-04-24T19:27:45.760Z,7.27
2023-04-24T19:30:16.190Z,4.77
2023-04-24T19:32:43.186Z,5.03
2023-04-24T19:35:10.163Z,10.43
2023-04-24T19:37:37.032Z,7.87
2023-04-24T19:40:04.542Z,5.80
2023-04-24T19:42:42.577Z,8.10
2023-04-24T19:45:14.844Z,7.10
2023-04-24T19:47:41.712Z,7.27
2023-04-24T19:50:09.459Z,7.33
2023-04-24T19:52:36.693Z,5.70
2023-04-24T19:55:04.119Z,6.73
2023-04-24T19:57:31.384Z,6.00
2023-04-24T19:59:58.349Z,7.53
2023-04-24T20:02:25.799Z,9.17
2023-04-24T20:04:52.922Z,7.40
2023-04-24T20:07:19.770Z,9.73
2023-04-24T20:09:47.327Z,7.37
2023-04-24T20:12:14.322Z,7.37
2023-04-24T20:14:41.143Z,7.73
2023-04-24T20:17:08.143Z,10.40
2023-04-24T20:19:35.413Z,9.73
2023-04-24T20:22:02.152Z,12.07
2023-04-24T20:24:29.516Z,8.27
2023-04-24T20:26:59.628Z,8.93
2023-04-24T20:29:26.580Z,6.50
2023-04-24T20:31:57.153Z,9.00
2023-04-24T20:34:24.297Z,8.27
2023-04-24T20:36:51.475Z,8.23
2023-04-24T20:39:18.753Z,9.97
2023-04-24T20:41:48.750Z,6.27
2023-04-24T20:44:15.963Z,7.00
2023-04-24T20:46:43.074Z,9.77
2023-04-24T20:49:10.082Z,7.00
2023-04-24T20:51:37.191Z,8.07
2023-04-24T20:54:04.412Z,5.80
2023-04-24T20:56:31.537Z,7.83
2023-04-24T20:58:58.473Z,8.80
2023-04-24T21:01:25.794Z,7.00
2023-04-24T21:03:53.326Z,6.93
2023-04-24T21:06:20.579Z,7.20
2023-04-24T21:08:47.793Z,9.17
2023-04-24T21:11:14.789Z,7.43
2023-04-24T21:13:41.791Z,9.27
2023-04-24T21:16:08.973Z,8.00
2023-04-24T21:18:43.783Z,10.90
2023-04-24T21:21:10.700Z,10.73
2023-04-24T21:23:40.236Z,8.33
2023-04-24T21:26:07.647Z,7.70
2023-04-24T21:28:34.751Z,9.23
2023-04-24T21:31:01.941Z,9.27
2023-04-24T21:33:29.092Z,9.43
2023-04-24T21:35:58.561Z,7.43
2023-04-24T21:38:25.668Z,8.93
2023-04-24T21:40:52.962Z,14.10
2023-04-24T21:43:25.372Z,10.53
2023-04-24T21:45:55.140Z,10.53
2023-04-24T21:48:22.099Z,9.00
2023-04-24T21:50:49.474Z,9.33
2023-04-24T21:53:16.456Z,8.80
2023-04-24T21:55:44.422Z,9.20
2023-04-24T21:58:11.501Z,11.87
2023-04-24T22:00:38.563Z,12.00
2023-04-24T22:03:05.739Z,11.43
2023-04-24T22:05:32.989Z,8.93
2023-04-24T22:08:00.029Z,9.23
2023-04-24T22:10:27.414Z,11.03
2023-04-24T22:12:54.732Z,10.93
2023-04-24T22:15:24.305Z,11.87
2023-04-24T22:17:52.791Z,10.40
2023-04-24T22:20:20.411Z,8.50
2023-04-24T22:22:50.567Z,11.57
2023-04-24T22:25:18.510Z,9.03
2023-04-24T22:27:45.604Z,9.23
2023-04-24T22:30:13.076Z,10.00
2023-04-24T22:32:40.016Z,8.87
2023-04-24T22:35:08.166Z,13.77
2023-04-24T22:37:35.241Z,10.87
2023-04-24T22:40:02.437Z,11.07
2023-04-24T22:42:32.074Z,12.83
2023-04-24T22:44:59.088Z,9.10
2023-04-24T22:47:26.219Z,13.60
2023-04-24T22:49:56.880Z,10.30
2023-04-24T22:52:25.692Z,12.87
2023-04-24T22:54:52.579Z,10.00
2023-04-24T22:57:19.505Z,12.77
2023-04-24T22:59:46.350Z,12.13
2023-04-24T23:02:16.992Z,9.90
2023-04-24T23:04:44.217Z,9.33
2023-04-24T23:07:11.443Z,11.43
2023-04-24T23:09:38.355Z,14.63
2023-04-24T23:12:08.275Z,10.37
2023-04-24T23:14:35.399Z,11.53
2023-04-24T23:17:02.534Z,9.77
2023-04-24T23:19:29.497Z,11.67
2023-04-24T23:21:56.518Z,13.27
2023-04-24T23:24:23.276Z,15.90
2023-04-24T23:26:50.263Z,14.93
2023-04-24T23:29:17.171Z,19.27
2023-04-24T23:31:44.201Z,22.40
2023-04-24T23:34:11.165Z,19.00
2023-04-24T23:36:38.008Z,21.67
2023-04-24T23:39:05.528Z,22.87
2023-04-24T23:41:32.352Z,25.10
2023-04-24T23:43:59.129Z,21.73
2023-04-24T23:46:26.936Z,20.07
2023-04-24T23:48:53.834Z,23.33
2023-04-24T23:51:20.932Z,29.97
2023-04-24T23:53:47.862Z,26.63
2023-04-24T23:56:15.104Z,22.80
2023-04-24T23:58:41.938Z,24.13
